Time;durP1;ratioP1;P1;durP2;ratioP2;P2;SDS_P1;SDS_P2;PMS_P1;PMS_P2;Temp;Humidity;BMP_temperature;BMP_pressure;BME280_temperature;BME280_humidity;BME280_pressure;Samples;Min_cycle;Max_cycle;Signal;HPM_P1;HPM_P2
2022/11/19 05:05:26;;;;;;;1.42;1.27;;;8.00;99.90;;;;;;5342682;23;20699;-67
2022/11/19 05:07:52;;;;;;;1.00;1.00;;;8.00;99.90;;;;;;4957720;29;20255;-67
2022/11/19 05:10:18;;;;;;;1.10;1.10;;;8.00;99.90;;;;;;4957866;29;20201;-67
2022/11/19 05:12:43;;;;;;;1.50;1.13;;;8.00;99.90;;;;;;4957364;29;20169;-67
2022/11/19 05:15:09;;;;;;;1.47;1.07;;;8.00;99.90;;;;;;4957341;28;20200;-68
2022/11/19 05:17:35;;;;;;;1.23;1.23;;;8.00;99.90;;;;;;4957792;29;20201;-67
2022/11/19 05:20:01;;;;;;;1.30;1.20;;;8.00;99.90;;;;;;4957552;29;20175;-68
2022/11/19 05:22:26;;;;;;;1.40;1.30;;;8.00;99.90;;;;;;4940185;29;20172;-69
2022/11/19 05:24:52;;;;;;;1.37;0.97;;;8.00;99.90;;;;;;4957335;28;20549;-68
2022/11/19 05:27:17;;;;;;;1.33;1.23;;;7.90;99.90;;;;;;4957418;29;20647;-68
2022/11/19 05:29:43;;;;;;;1.40;1.17;;;8.00;99.90;;;;;;4957394;29;20263;-67
2022/11/19 05:32:08;;;;;;;1.50;1.40;;;7.90;99.90;;;;;;4957169;29;20169;-67
2022/11/19 05:34:34;;;;;;;1.17;1.07;;;8.00;99.90;;;;;;4956002;28;20272;-68
2022/11/19 05:37:00;;;;;;;1.33;1.23;;;8.00;99.90;;;;;;4957271;29;20165;-68
2022/11/19 05:39:25;;;;;;;2.00;1.00;;;8.00;99.90;;;;;;4957148;29;20172;-68
2022/11/19 05:41:51;;;;;;;1.00;1.00;;;8.00;99.90;;;;;;4957110;29;20179;-68
2022/11/19 05:44:17;;;;;;;0.87;0.87;;;8.00;99.90;;;;;;4956729;28;20188;-68
2022/11/19 05:46:42;;;;;;;1.33;1.23;;;8.00;99.90;;;;;;4957102;29;20628;-68
2022/11/19 05:49:08;;;;;;;1.40;1.30;;;7.90;99.90;;;;;;4957200;29;20508;-68
2022/11/19 05:51:33;;;;;;;1.00;1.00;;;8.00;99.90;;;;;;4956904;29;20173;-68
2022/11/19 05:53:59;;;;;;;1.07;1.03;;;7.90;99.90;;;;;;4956573;28;20200;-68
2022/11/19 05:56:24;;;;;;;1.10;1.10;;;8.00;99.90;;;;;;4956856;29;20251;-68
2022/11/19 05:58:50;;;;;;;1.13;1.13;;;8.00;99.90;;;;;;4957090;29;20668;-67
2022/11/19 06:01:23;;;;;;;1.10;1.10;;;8.00;99.90;;;;;;4944824;29;20587;-67
2022/11/19 06:03:49;;;;;;;1.15;1.05;;;8.10;99.90;;;;;;4956344;28;20268;-66
2022/11/19 06:06:14;;;;;;;1.40;1.30;;;8.10;99.90;;;;;;4955847;28;20188;-67
2022/11/19 06:08:40;;;;;;;1.50;1.40;;;8.10;99.90;;;;;;4956819;29;20204;-66
2022/11/19 06:11:05;;;;;;;1.57;1.47;;;8.10;99.90;;;;;;4956404;29;20169;-67
2022/11/19 06:13:31;;;;;;;1.20;1.20;;;8.10;99.90;;;;;;4956179;28;20205;-66
2022/11/19 06:15:57;;;;;;;1.50;1.40;;;8.10;99.90;;;;;;4956177;29;20168;-66
2022/11/19 06:18:22;;;;;;;1.20;1.10;;;8.10;99.90;;;;;;4955804;29;20269;-67
2022/11/19 06:20:48;;;;;;;1.90;1.80;;;8.10;99.90;;;;;;4956314;29;20181;-65
2022/11/19 06:23:13;;;;;;;1.30;1.20;;;8.10;99.90;;;;;;4955241;29;20636;-66
2022/11/19 06:25:39;;;;;;;1.80;1.70;;;8.00;99.90;;;;;;4955852;28;20199;-67
2022/11/19 06:28:04;;;;;;;1.63;1.53;;;8.10;99.90;;;;;;4956144;29;20172;-66
2022/11/19 06:30:31;;;;;;;1.65;1.55;;;8.10;99.90;;;;;;4956048;29;20212;-67
2022/11/19 06:32:57;;;;;;;1.30;1.30;;;8.10;99.90;;;;;;4955732;29;20589;-68
2022/11/19 06:35:22;;;;;;;1.07;1.07;;;8.10;99.90;;;;;;4955488;28;20571;-68
2022/11/19 06:37:48;;;;;;;1.57;1.47;;;8.00;99.90;;;;;;4955998;29;20208;-68
2022/11/19 06:40:13;;;;;;;1.10;1.10;;;8.00;99.90;;;;;;4956063;29;20715;-67
2022/11/19 06:42:39;;;;;;;0.90;0.90;;;8.00;99.90;;;;;;4955557;29;20529;-67
2022/11/19 06:45:09;;;;;;;1.00;0.90;;;8.00;99.90;;;;;;4955882;28;20220;-68
2022/11/19 06:47:35;;;;;;;1.45;1.38;;;7.90;99.90;;;;;;4955964;29;20204;-67
2022/11/19 06:50:01;;;;;;;1.30;1.20;;;7.90;99.90;;;;;;4955662;29;20540;-67
2022/11/19 06:52:27;;;;;;;1.87;1.27;;;7.90;99.90;;;;;;4955558;29;20176;-68
2022/11/19 06:54:53;;;;;;;1.70;1.60;;;7.90;99.90;;;;;;4955263;28;20490;-67
2022/11/19 06:57:19;;;;;;;1.20;1.20;;;7.90;99.90;;;;;;4955286;29;20533;-67
2022/11/19 06:59:44;;;;;;;2.10;2.00;;;7.90;99.90;;;;;;4955543;29;20172;-68
2022/11/19 07:02:11;;;;;;;1.43;1.27;;;7.90;99.90;;;;;;4955938;29;20173;-67
2022/11/19 07:04:36;;;;;;;2.78;2.55;;;7.90;99.90;;;;;;4953160;28;20280;-68
2022/11/19 07:07:03;;;;;;;1.80;1.70;;;8.00;99.90;;;;;;4955681;29;20316;-68
2022/11/19 07:09:28;;;;;;;1.50;1.40;;;8.00;99.90;;;;;;4954710;29;20268;-67
2022/11/19 07:11:54;;;;;;;1.50;1.50;;;8.00;99.90;;;;;;4953762;28;20700;-67
2022/11/19 07:14:20;;;;;;;1.73;1.63;;;8.00;99.90;;;;;;4954721;29;20185;-67
2022/11/19 07:16:45;;;;;;;2.00;1.60;;;8.00;99.90;;;;;;4954683;29;20204;-68
2022/11/19 07:19:11;;;;;;;4.30;2.17;;;8.00;99.90;;;;;;4954255;28;20208;-67
2022/11/19 07:21:36;;;;;;;1.73;1.63;;;8.00;99.90;;;;;;4954974;29;20260;-68
2022/11/19 07:24:04;;;;;;;1.73;1.57;;;8.00;99.90;;;;;;4954736;29;20195;-70
2022/11/19 07:26:31;;;;;;;2.10;2.00;;;8.00;99.90;;;;;;4952719;29;20173;-69
2022/11/19 07:28:59;;;;;;;3.90;2.47;;;8.00;99.90;;;;;;4952370;29;20192;-68
2022/11/19 07:31:25;;;;;;;2.28;1.85;;;7.90;99.90;;;;;;4954975;29;20173;-69
2022/11/19 07:33:50;;;;;;;2.97;2.20;;;7.90;99.90;;;;;;4951495;29;21004;-69
2022/11/19 07:36:16;;;;;;;0.87;0.87;;;7.90;99.90;;;;;;4950718;29;20307;-76
2022/11/19 07:38:42;;;;;;;2.30;1.63;;;7.80;99.90;;;;;;4944057;29;20208;-67
2022/11/19 07:42:47;;;;;;;1.90;1.80;;;7.80;99.90;;;;;;4953832;28;20188;-69
2022/11/19 07:43:53;;;;;;;1.02;1.02;;;7.80;99.90;;;;;;4954218;29;20337;-67
2022/11/19 07:46:19;;;;;;;2.23;2.03;;;7.80;99.90;;;;;;4953566;29;20210;-66
2022/11/19 07:48:45;;;;;;;3.08;2.00;;;7.90;99.90;;;;;;4954435;29;20427;-67
2022/11/19 07:51:11;;;;;;;1.70;1.60;;;7.90;99.90;;;;;;4954716;29;20188;-64
2022/11/19 07:53:36;;;;;;;1.90;1.80;;;7.90;99.90;;;;;;4954547;29;20208;-66
2022/11/19 07:56:02;;;;;;;2.20;2.00;;;8.00;99.90;;;;;;4954632;29;20434;-66
2022/11/19 07:58:28;;;;;;;1.90;1.50;;;8.00;99.90;;;;;;4937478;29;20201;-66
2022/11/19 08:00:53;;;;;;;1.67;1.57;;;8.20;99.90;;;;;;4954380;29;20528;-67
2022/11/19 08:03:19;;;;;;;2.30;1.87;;;8.40;99.90;;;;;;4954360;29;20203;-66
2022/11/19 08:05:45;;;;;;;2.40;1.70;;;8.60;99.90;;;;;;4954245;29;20188;-66
2022/11/19 08:08:10;;;;;;;2.67;2.07;;;8.80;99.90;;;;;;4954791;29;20179;-67
2022/11/19 08:10:36;;;;;;;1.60;1.50;;;8.90;99.90;;;;;;4937095;29;20483;-66
2022/11/19 08:13:02;;;;;;;1.57;1.40;;;9.00;99.90;;;;;;4954295;29;20180;-67
2022/11/19 08:15:32;;;;;;;1.92;1.83;;;9.20;99.90;;;;;;4954225;29;20204;-66
2022/11/19 08:18:16;;;;;;;2.38;2.17;;;9.30;99.90;;;;;;4936638;29;20309;-67
2022/11/19 08:20:43;;;;;;;2.53;1.70;;;9.50;99.90;;;;;;4954026;29;20181;-66
2022/11/19 08:23:10;;;;;;;1.65;1.55;;;9.60;99.90;;;;;;4954325;29;20177;-67
2022/11/19 08:25:36;;;;;;;1.77;1.67;;;9.70;99.90;;;;;;4953993;29;20201;-67
2022/11/19 08:28:03;;;;;;;1.88;1.70;;;9.70;99.90;;;;;;4943351;29;20210;-67
2022/11/19 08:30:30;;;;;;;1.42;1.42;;;9.70;99.90;;;;;;4956998;28;20564;-66
2022/11/19 08:32:56;;;;;;;3.00;2.80;;;9.70;99.90;;;;;;4957182;29;20265;-67
2022/11/19 08:35:21;;;;;;;1.70;1.60;;;9.80;99.90;;;;;;4957958;29;20301;-68
2022/11/19 08:37:47;;;;;;;3.60;3.30;;;9.90;99.90;;;;;;4957568;29;20209;-67
2022/11/19 08:40:14;;;;;;;2.05;1.55;;;9.90;99.90;;;;;;4956811;29;20426;-67
2022/11/19 08:45:25;;;;;;;2.00;1.48;;;10.00;99.90;;;;;;4957736;29;20276;-66
2022/11/19 08:47:51;;;;;;;1.58;1.30;;;10.00;99.90;;;;;;4957956;29;20182;-67
2022/11/19 08:50:17;;;;;;;1.33;1.23;;;10.00;99.90;;;;;;4957564;29;20170;-68
2022/11/19 08:52:42;;;;;;;1.50;1.40;;;10.00;99.90;;;;;;4957118;29;20921;-67
2022/11/19 08:55:08;;;;;;;1.83;1.73;;;10.10;99.90;;;;;;4957101;29;20752;-67
2022/11/19 08:57:34;;;;;;;2.23;2.03;;;10.10;99.90;;;;;;4957682;29;20736;-67
2022/11/19 09:00:00;;;;;;;1.53;1.43;;;10.10;99.90;;;;;;4940331;29;20422;-68
2022/11/19 09:02:25;;;;;;;1.43;1.17;;;10.20;99.90;;;;;;4957676;29;20177;-69
2022/11/19 09:04:51;;;;;;;1.53;1.40;;;10.40;99.90;;;;;;4956872;29;20580;-68
2022/11/19 09:07:16;;;;;;;2.83;1.30;;;10.70;99.90;;;;;;4957493;29;20183;-68
2022/11/19 09:09:42;;;;;;;3.53;1.90;;;10.80;99.90;;;;;;4957448;29;20211;-67
2022/11/19 09:12:08;;;;;;;3.73;1.67;;;10.80;99.90;;;;;;4957200;29;20167;-68
2022/11/19 09:14:33;;;;;;;1.17;1.17;;;10.90;99.90;;;;;;4956540;29;20273;-68
2022/11/19 09:17:00;;;;;;;1.20;1.20;;;11.00;99.90;;;;;;4957526;29;20550;-68
2022/11/19 09:19:25;;;;;;;0.90;0.90;;;11.00;99.90;;;;;;4957210;29;20212;-68
2022/11/19 09:21:51;;;;;;;1.13;1.03;;;11.00;99.90;;;;;;4957625;29;20484;-68
2022/11/19 09:24:16;;;;;;;1.00;1.00;;;11.00;99.90;;;;;;4956517;29;20693;-68
2022/11/19 09:26:42;;;;;;;1.40;0.80;;;11.00;99.90;;;;;;4956724;29;20543;-68
2022/11/19 09:29:08;;;;;;;1.10;1.10;;;11.20;99.90;;;;;;4957197;29;20538;-67
2022/11/19 09:31:34;;;;;;;1.33;1.23;;;11.30;99.90;;;;;;4957342;29;20470;-66
2022/11/19 09:33:59;;;;;;;1.73;1.63;;;11.50;99.90;;;;;;4956547;29;20660;-69
2022/11/19 09:36:25;;;;;;;1.27;1.20;;;11.60;99.90;;;;;;4957255;29;20178;-67
2022/11/19 09:38:56;;;;;;;1.33;1.23;;;11.60;99.90;;;;;;4956719;29;20576;-65
2022/11/19 09:41:44;;;;;;;1.23;1.13;;;11.60;99.90;;;;;;4955918;28;20238;-66
2022/11/19 09:44:16;;;;;;;2.53;1.13;;;11.60;99.90;;;;;;4956776;29;20423;-68
2022/11/19 09:47:02;;;;;;;1.57;1.10;;;11.60;99.90;;;;;;4956858;29;20418;-67
2022/11/19 09:49:36;;;;;;;2.17;1.30;;;11.60;99.90;;;;;;4957069;29;20408;-69
2022/11/19 09:52:13;;;;;;;0.77;0.77;;;11.70;99.90;;;;;;4956114;29;20927;-67
2022/11/19 09:54:47;;;;;;;0.80;0.80;;;11.70;99.90;;;;;;4956310;29;20435;-69
2022/11/19 09:57:17;;;;;;;1.43;1.33;;;11.60;99.90;;;;;;4956627;29;20427;-68
2022/11/19 09:59:42;;;;;;;1.40;0.80;;;11.50;99.90;;;;;;4956861;29;20519;-68
2022/11/19 10:02:19;;;;;;;0.90;0.90;;;11.30;99.90;;;;;;4956391;29;20500;-70
2022/11/19 10:04:46;;;;;;;0.80;0.80;;;11.30;99.90;;;;;;4936974;29;21976;-69
2022/11/19 10:07:20;;;;;;;2.40;1.13;;;11.20;99.90;;;;;;4937511;29;20470;-68
2022/11/19 10:10:07;;;;;;;3.03;1.37;;;11.20;99.90;;;;;;4940165;29;20913;-68
2022/11/19 10:12:54;;;;;;;1.17;0.90;;;11.00;99.90;;;;;;4955609;29;20829;-68
2022/11/19 10:15:19;;;;;;;0.98;0.98;;;10.90;99.90;;;;;;4954227;29;21006;-68
2022/11/19 10:18:00;;;;;;;0.90;0.80;;;10.80;99.90;;;;;;4955439;29;20278;-67
2022/11/19 10:20:49;;;;;;;1.93;0.67;;;10.70;99.90;;;;;;4955479;29;20174;-65
2022/11/19 10:23:19;;;;;;;0.95;0.80;;;10.50;99.90;;;;;;4954706;29;20763;-66
2022/11/19 10:25:50;;;;;;;0.90;0.90;;;10.40;99.90;;;;;;4955451;29;20240;-68
2022/11/19 10:28:26;;;;;;;0.80;0.80;;;10.40;99.90;;;;;;4954768;29;20185;-67
2022/11/19 10:30:58;;;;;;;2.17;1.08;;;10.30;99.90;;;;;;4943650;29;20537;-68
2022/11/19 10:33:32;;;;;;;1.75;0.88;;;10.20;99.90;;;;;;4955685;29;20184;-68
2022/11/19 10:36:21;;;;;;;1.23;1.10;;;10.30;99.90;;;;;;4956026;29;20196;-66
2022/11/19 10:39:06;;;;;;;1.60;1.50;;;10.20;99.90;;;;;;4954721;29;20240;-66
2022/11/19 10:41:44;;;;;;;2.13;1.40;;;10.30;99.90;;;;;;4939567;29;20649;-67
2022/11/19 10:44:40;;;;;;;0.90;0.90;;;10.30;99.90;;;;;;4955389;29;20196;-67
2022/11/19 10:47:13;;;;;;;3.80;1.10;;;10.30;99.90;;;;;;4955920;29;20529;-68
2022/11/19 10:49:40;;;;;;;1.83;1.60;;;10.70;99.90;;;;;;4955617;29;20516;-69
2022/11/19 10:52:23;;;;;;;1.43;1.33;;;11.10;99.90;;;;;;4955678;28;20813;-68
2022/11/19 10:54:51;;;;;;;1.27;1.20;;;11.40;99.90;;;;;;4937838;29;20466;-68
2022/11/19 10:57:20;;;;;;;0.90;0.90;;;11.60;99.90;;;;;;4938361;29;20431;-68
2022/11/19 10:59:48;;;;;;;1.43;1.27;;;11.70;99.90;;;;;;4955415;29;20412;-69
2022/11/19 11:02:43;;;;;;;0.63;0.63;;;11.90;99.90;;;;;;4955605;29;20423;-68
2022/11/19 11:05:14;;;;;;;0.80;0.80;;;12.00;99.90;;;;;;4937437;29;20863;-68
2022/11/19 11:07:58;;;;;;;5.93;1.43;;;12.00;99.90;;;;;;4954808;29;21214;-69
2022/11/19 11:10:24;;;;;;;0.60;0.60;;;12.10;99.90;;;;;;4955317;29;20455;-68
2022/11/19 11:15:34;;;;;;;0.80;0.80;;;12.00;99.90;;;;;;4953730;29;20499;-69
2022/11/19 11:18:03;;;;;;;1.00;1.00;;;11.80;99.90;;;;;;4954571;29;20962;-67
2022/11/19 11:20:30;;;;;;;1.03;0.90;;;11.80;99.90;;;;;;4954668;29;20596;-68
2022/11/19 11:23:14;;;;;;;0.80;0.80;;;11.70;99.90;;;;;;4952636;29;20418;-69
2022/11/19 11:25:48;;;;;;;1.10;1.00;;;11.60;99.90;;;;;;4951750;29;20506;-69
2022/11/19 11:28:17;;;;;;;2.87;1.07;;;11.60;99.90;;;;;;4952146;29;20787;-69
2022/11/19 11:31:02;;;;;;;1.10;1.00;;;11.40;99.90;;;;;;4951635;29;20430;-68
2022/11/19 11:33:49;;;;;;;1.70;1.47;;;11.20;99.90;;;;;;4951924;29;20415;-69
2022/11/19 11:36:18;;;;;;;0.90;0.90;;;11.00;99.90;;;;;;4952120;29;20433;-69
2022/11/19 11:38:49;;;;;;;1.17;1.10;;;10.90;99.90;;;;;;4953496;29;20462;-68
2022/11/19 11:41:20;;;;;;;1.35;1.25;;;10.80;99.90;;;;;;4954919;29;20692;-68
2022/11/19 11:44:02;;;;;;;0.90;0.90;;;10.70;99.90;;;;;;4954702;29;20190;-69
2022/11/19 11:46:50;;;;;;;1.20;1.10;;;10.70;99.90;;;;;;4955310;29;20206;-69
2022/11/19 11:49:26;;;;;;;0.90;0.90;;;10.60;99.90;;;;;;4954793;29;20491;-69
2022/11/19 11:52:35;;;;;;;1.50;1.08;;;10.50;99.90;;;;;;4955008;29;20173;-69
2022/11/19 11:55:04;;;;;;;1.33;0.90;;;10.50;99.90;;;;;;4937380;29;20256;-68
2022/11/19 11:57:48;;;;;;;2.30;1.23;;;10.50;99.90;;;;;;4955243;29;20180;-69
2022/11/19 12:00:36;;;;;;;7.10;1.30;;;10.50;99.90;;;;;;4954727;29;20431;-69
2022/11/19 12:03:09;;;;;;;1.52;1.15;;;10.50;99.90;;;;;;4954778;29;20181;-69
2022/11/19 12:05:53;;;;;;;1.30;1.20;;;10.50;99.90;;;;;;4960089;28;20204;-69
2022/11/19 12:08:24;;;;;;;0.93;0.82;;;10.50;99.90;;;;;;4941490;29;20429;-68
2022/11/19 12:11:00;;;;;;;0.90;0.90;;;10.50;99.90;;;;;;4958739;29;20226;-69
2022/11/19 12:13:38;;;;;;;0.90;0.90;;;10.50;99.90;;;;;;4958754;29;20170;-69
2022/11/19 12:16:29;;;;;;;1.35;1.30;;;10.50;99.90;;;;;;4958545;29;20178;-69
2022/11/19 12:19:20;;;;;;;1.13;1.00;;;10.40;99.90;;;;;;4951796;29;20265;-69
2022/11/19 12:22:10;;;;;;;4.50;2.15;;;10.30;99.90;;;;;;4957808;29;20543;-69
2022/11/19 12:24:48;;;;;;;1.10;1.00;;;10.20;99.90;;;;;;4954431;29;20287;-69
2022/11/19 12:27:26;;;;;;;2.42;1.30;;;10.10;99.90;;;;;;4958713;29;20173;-70
2022/11/19 12:30:01;;;;;;;0.95;0.90;;;9.90;99.90;;;;;;4958500;29;20256;-68
2022/11/19 12:32:42;;;;;;;0.80;0.80;;;9.80;99.90;;;;;;4958303;29;20173;-70
2022/11/19 12:35:27;;;;;;;0.85;0.85;;;9.70;99.90;;;;;;4958136;29;20194;-69
2022/11/19 12:38:08;;;;;;;1.23;1.23;;;9.60;99.90;;;;;;4958505;29;20201;-69
2022/11/19 12:40:45;;;;;;;1.10;1.10;;;9.50;99.90;;;;;;4959981;29;20165;-69
2022/11/19 12:43:33;;;;;;;0.95;0.95;;;9.50;99.90;;;;;;4958017;29;20173;-70
2022/11/19 12:46:23;;;;;;;1.25;1.25;;;9.50;99.90;;;;;;4958179;29;20179;-69
2022/11/19 12:48:55;;;;;;;1.98;1.83;;;9.50;99.90;;;;;;4958068;29;20228;-70
2022/11/19 12:51:51;;;;;;;1.90;1.40;;;9.40;99.90;;;;;;4957975;29;20528;-69
2022/11/19 12:54:47;;;;;;;1.35;1.25;;;9.40;99.90;;;;;;4957632;29;20558;-69
2022/11/19 12:57:25;;;;;;;4.75;1.52;;;9.40;99.90;;;;;;4951847;29;20676;-69
2022/11/19 13:00:02;;;;;;;2.30;2.05;;;9.40;99.90;;;;;;4957752;29;20255;-70
2022/11/19 13:02:33;;;;;;;4.85;1.80;;;9.50;99.90;;;;;;4957834;29;20184;-69
2022/11/19 13:05:21;;;;;;;1.80;1.58;;;9.50;99.90;;;;;;4957005;29;20202;-69
2022/11/19 13:08:02;;;;;;;1.67;1.58;;;9.50;99.90;;;;;;4940217;29;20581;-70
2022/11/19 13:10:37;;;;;;;1.67;1.58;;;9.40;99.90;;;;;;4958188;29;20184;-70
2022/11/19 13:13:07;;;;;;;1.63;1.52;;;9.40;99.90;;;;;;4957584;29;20176;-69
2022/11/19 13:15:38;;;;;;;2.30;2.10;;;9.40;99.90;;;;;;4957457;28;20596;-71
2022/11/19 13:18:11;;;;;;;2.65;2.13;;;9.40;99.90;;;;;;4957446;29;20215;-69
2022/11/19 13:20:58;;;;;;;3.35;2.00;;;9.30;99.90;;;;;;4957517;29;20173;-69
2022/11/19 13:23:30;;;;;;;1.55;1.45;;;9.30;99.90;;;;;;4957172;29;20259;-70
2022/11/19 13:26:08;;;;;;;1.55;1.45;;;9.30;99.90;;;;;;4939882;29;20232;-70
2022/11/19 13:28:36;;;;;;;1.85;1.75;;;9.20;99.90;;;;;;4957681;29;20176;-69
2022/11/19 13:31:09;;;;;;;1.58;1.48;;;9.20;99.90;;;;;;4957053;29;20188;-68
2022/11/19 13:33:49;;;;;;;2.08;1.60;;;9.20;99.90;;;;;;4955521;28;20181;-68
2022/11/19 13:36:43;;;;;;;2.17;2.00;;;9.20;99.90;;;;;;4939770;29;20564;-68
2022/11/19 13:39:30;;;;;;;1.77;1.67;;;9.20;99.90;;;;;;4931670;29;20651;-69
2022/11/19 13:44:42;;;;;;;2.05;1.67;;;9.30;99.90;;;;;;4956771;29;20219;-68
2022/11/19 13:47:55;;;;;;;2.30;1.73;;;9.20;99.90;;;;;;4957076;29;20541;-70
2022/11/19 13:50:42;;;;;;;11.85;6.97;;;9.30;99.90;;;;;;4952218;29;20552;-68
2022/11/19 13:53:16;;;;;;;2.38;2.15;;;9.30;99.90;;;;;;4939391;29;20204;-68
2022/11/19 13:55:44;;;;;;;2.08;1.88;;;9.30;99.90;;;;;;4956643;29;20223;-68
2022/11/19 13:58:12;;;;;;;1.80;1.70;;;9.40;99.90;;;;;;4956922;29;20554;-68
2022/11/19 14:00:39;;;;;;;1.95;1.80;;;9.40;99.90;;;;;;4956737;29;20184;-67
2022/11/19 14:03:32;;;;;;;1.40;1.30;;;9.40;99.90;;;;;;4956371;29;20537;-69
2022/11/19 14:06:16;;;;;;;2.00;1.90;;;9.40;99.90;;;;;;4939804;29;20550;-69
2022/11/19 14:08:54;;;;;;;1.90;1.80;;;9.50;99.90;;;;;;4956814;29;20189;-70
2022/11/19 14:11:38;;;;;;;2.80;2.10;;;9.50;99.90;;;;;;4937737;29;20169;-68
2022/11/19 14:26:41;;;;;;;2.15;1.80;;;9.70;99.90;;;;;;4956102;28;20260;-68
2022/11/19 14:29:26;;;;;;;4.50;1.40;;;9.60;99.90;;;;;;4956515;29;20644;-69
2022/11/19 14:32:15;;;;;;;1.35;1.25;;;9.60;99.90;;;;;;4956084;29;20192;-70
2022/11/19 14:34:43;;;;;;;2.10;1.90;;;9.60;99.90;;;;;;4927527;29;20237;-69
2022/11/19 14:37:31;;;;;;;1.65;1.55;;;9.70;99.90;;;;;;4956397;29;20231;-69
2022/11/19 14:40:12;;;;;;;2.45;2.25;;;9.70;99.90;;;;;;4955824;29;20193;-69
2022/11/19 14:46:01;;;;;;;2.17;1.55;;;9.60;99.90;;;;;;4911707;29;20232;-69
2022/11/19 14:48:37;;;;;;;2.35;2.17;;;9.60;99.90;;;;;;4955773;29;20169;-69
2022/11/19 14:51:05;;;;;;;1.50;1.40;;;9.60;99.90;;;;;;4955727;29;20181;-70
2022/11/19 14:53:31;;;;;;;1.90;1.80;;;9.60;99.90;;;;;;4937647;29;20173;-69
2022/11/19 14:55:58;;;;;;;1.73;1.63;;;9.60;99.90;;;;;;4955885;29;20169;-69
2022/11/19 14:58:23;;;;;;;1.42;1.42;;;9.60;99.90;;;;;;4955517;29;20236;-67
2022/11/19 15:01:04;;;;;;;2.13;2.03;;;9.60;99.90;;;;;;4955916;29;20196;-68
2022/11/19 15:03:30;;;;;;;3.17;2.95;;;9.60;99.90;;;;;;4937906;29;20181;-68
2022/11/19 15:05:56;;;;;;;2.20;1.83;;;9.60;99.90;;;;;;4938584;29;20193;-68
2022/11/19 15:08:21;;;;;;;2.50;1.90;;;9.60;99.90;;;;;;4955470;29;20195;-69
2022/11/19 15:11:05;;;;;;;1.90;1.80;;;9.50;99.90;;;;;;4955710;29;20177;-67
2022/11/19 15:13:32;;;;;;;2.83;2.40;;;9.50;99.90;;;;;;4955042;29;20191;-68
2022/11/19 15:16:23;;;;;;;3.08;2.78;;;9.30;99.90;;;;;;4955705;29;20180;-67
2022/11/19 15:19:23;;;;;;;4.78;3.20;;;9.20;99.90;;;;;;4955528;29;20255;-67
2022/11/19 15:21:55;;;;;;;2.83;2.63;;;9.00;99.90;;;;;;4955680;29;20168;-70
2022/11/19 15:24:52;;;;;;;3.38;3.00;;;8.70;99.90;;;;;;4954327;29;20228;-70
2022/11/19 15:27:44;;;;;;;3.10;2.90;;;8.50;99.90;;;;;;4955732;29;20511;-70
2022/11/19 15:30:22;;;;;;;3.38;3.00;;;8.30;99.90;;;;;;4955161;29;20181;-69
2022/11/19 15:33:11;;;;;;;3.60;3.25;;;8.20;99.90;;;;;;4954746;29;20224;-70
2022/11/19 15:36:05;;;;;;;3.22;2.95;;;8.10;99.90;;;;;;4954974;29;20200;-69
2022/11/19 15:38:50;;;;;;;3.80;3.50;;;8.00;99.90;;;;;;4954528;29;20204;-69
2022/11/19 15:41:21;;;;;;;4.70;4.15;;;7.90;99.90;;;;;;4955006;29;20185;-69
2022/11/19 15:43:56;;;;;;;3.38;3.08;;;7.80;99.90;;;;;;4954478;29;20196;-69
2022/11/19 15:46:57;;;;;;;3.88;2.78;;;7.70;99.90;;;;;;4938574;29;20220;-70
2022/11/19 15:49:26;;;;;;;3.63;3.25;;;7.60;99.90;;;;;;4923758;29;20572;-70
2022/11/19 15:51:58;;;;;;;3.92;3.10;;;7.50;99.90;;;;;;4955216;29;20172;-69
2022/11/19 15:54:29;;;;;;;3.03;2.83;;;7.40;99.90;;;;;;4953816;29;20196;-69
2022/11/19 15:57:15;;;;;;;3.75;3.45;;;7.30;99.90;;;;;;4954656;29;20529;-71
2022/11/19 15:59:43;;;;;;;3.47;3.17;;;7.30;99.90;;;;;;4937152;29;20241;-70
2022/11/19 16:02:31;;;;;;;2.92;2.70;;;7.20;99.90;;;;;;4954952;29;20168;-69
2022/11/19 16:04:56;;;;;;;5.50;3.50;;;7.10;99.90;;;;;;4954484;28;20561;-69
2022/11/19 16:07:25;;;;;;;2.40;2.20;;;7.10;99.90;;;;;;4954395;29;20182;-69
2022/11/19 16:09:51;;;;;;;2.80;2.50;;;7.00;99.90;;;;;;4954693;29;20176;-69
2022/11/19 16:18:15;;;;;;;4.63;4.22;;;7.00;99.90;;;;;;4954447;29;20563;-70
2022/11/19 16:20:46;;;;;;;2.65;2.45;;;6.90;99.90;;;;;;4954650;29;20173;-69
2022/11/19 16:23:21;;;;;;;3.70;3.22;;;7.00;99.90;;;;;;4953763;29;20180;-69
2022/11/19 16:25:47;;;;;;;3.05;2.80;;;6.90;99.90;;;;;;4954824;29;20175;-70
2022/11/19 16:28:23;;;;;;;4.15;3.80;;;7.00;99.90;;;;;;4954162;29;20183;-69
2022/11/19 16:30:58;;;;;;;4.78;4.25;;;7.00;99.90;;;;;;4953989;29;20235;-69
2022/11/19 16:33:26;;;;;;;5.55;4.43;;;7.00;99.90;;;;;;4954003;29;20179;-69
2022/11/19 16:36:13;;;;;;;2.85;2.60;;;7.10;99.90;;;;;;4954803;29;20172;-68
2022/11/19 16:38:42;;;;;;;3.28;2.97;;;7.10;99.90;;;;;;4954311;29;20193;-68
2022/11/19 16:44:16;;;;;;;7.22;5.57;;;7.10;99.90;;;;;;4935289;29;20296;-69
2022/11/19 16:46:42;;;;;;;4.43;4.13;;;7.10;99.90;;;;;;4939264;29;20181;-69
2022/11/19 16:49:45;;;;;;;4.00;3.37;;;7.10;99.90;;;;;;4954969;29;20228;-69
2022/11/19 16:52:33;;;;;;;2.63;2.42;;;7.10;99.90;;;;;;4945947;29;20800;-69
2022/11/19 16:55:00;;;;;;;3.40;3.10;;;7.10;99.90;;;;;;4958270;29;20198;-68
2022/11/19 16:57:28;;;;;;;4.20;2.85;;;7.10;99.90;;;;;;4957832;29;20199;-68
2022/11/19 16:59:57;;;;;;;2.85;2.60;;;7.10;99.90;;;;;;4940790;29;20199;-67
2022/11/19 17:02:28;;;;;;;2.78;2.58;;;7.10;99.90;;;;;;4940486;29;20641;-68
2022/11/19 17:05:02;;;;;;;5.05;3.13;;;7.10;99.90;;;;;;4940083;29;20211;-68
2022/11/19 17:07:28;;;;;;;3.60;3.30;;;7.10;99.90;;;;;;4957814;29;20176;-68
2022/11/19 17:10:06;;;;;;;3.00;2.80;;;7.10;99.90;;;;;;4957714;29;20189;-67
2022/11/19 17:12:33;;;;;;;4.45;3.72;;;7.10;99.90;;;;;;4957527;29;20402;-68
2022/11/19 17:15:18;;;;;;;5.15;3.40;;;7.10;99.90;;;;;;4957319;29;20203;-67
2022/11/19 17:17:44;;;;;;;3.90;3.60;;;7.10;99.90;;;;;;4957384;29;20294;-68
2022/11/19 17:20:29;;;;;;;3.93;2.40;;;7.10;99.90;;;;;;4956917;29;20263;-68
2022/11/19 17:22:56;;;;;;;3.72;3.42;;;7.10;99.90;;;;;;4956884;29;20530;-68
2022/11/19 17:25:22;;;;;;;3.95;3.22;;;7.10;99.90;;;;;;4956866;29;20204;-66
2022/11/19 17:27:52;;;;;;;4.93;3.60;;;7.10;99.90;;;;;;4957438;29;20180;-68
2022/11/19 17:30:25;;;;;;;3.72;3.42;;;7.10;99.90;;;;;;4957211;29;20231;-68
2022/11/19 17:32:56;;;;;;;4.65;3.60;;;7.10;99.90;;;;;;4957195;29;20169;-68
2022/11/19 17:35:34;;;;;;;3.55;3.20;;;7.10;99.90;;;;;;4956594;29;20223;-67
2022/11/19 17:38:11;;;;;;;3.67;3.33;;;7.10;99.90;;;;;;4939818;29;20266;-69
2022/11/19 17:40:51;;;;;;;3.08;2.88;;;7.10;99.90;;;;;;4956889;29;20241;-67
2022/11/19 17:46:05;;;;;;;5.10;3.25;;;7.10;99.90;;;;;;4941492;29;20185;-67
2022/11/19 17:48:33;;;;;;;3.00;2.70;;;7.10;99.90;;;;;;4939357;29;20177;-68
2022/11/19 17:50:59;;;;;;;3.83;2.85;;;7.10;99.90;;;;;;4956639;29;20177;-69
2022/11/19 17:53:24;;;;;;;5.80;3.83;;;7.10;99.90;;;;;;4939500;29;20211;-70
2022/11/19 17:55:54;;;;;;;6.80;3.67;;;7.10;99.90;;;;;;4956391;29;20280;-70
2022/11/19 17:58:19;;;;;;;4.68;4.22;;;7.10;99.90;;;;;;4956719;29;20196;-70
2022/11/19 18:00:46;;;;;;;3.90;3.50;;;7.00;99.90;;;;;;4956395;29;20187;-69
2022/11/19 18:03:13;;;;;;;4.03;3.63;;;7.10;99.90;;;;;;4955768;28;20408;-70
2022/11/19 18:05:44;;;;;;;4.40;3.05;;;7.10;99.90;;;;;;4955667;29;20215;-68
2022/11/19 18:08:10;;;;;;;3.47;3.05;;;7.10;99.90;;;;;;4956842;29;20304;-70
2022/11/19 18:10:35;;;;;;;3.60;3.30;;;7.20;99.90;;;;;;4956240;29;20258;-70
2022/11/19 18:13:01;;;;;;;3.60;3.30;;;7.10;99.90;;;;;;4956121;29;20702;-70
2022/11/19 18:15:27;;;;;;;3.30;3.00;;;7.10;99.90;;;;;;4956113;29;20204;-70
2022/11/19 18:17:53;;;;;;;3.53;2.80;;;7.10;99.90;;;;;;4956484;29;20200;-70
2022/11/19 18:20:19;;;;;;;5.60;2.80;;;7.10;99.90;;;;;;4955828;29;20204;-70
2022/11/19 18:22:44;;;;;;;3.57;2.80;;;7.10;99.90;;;;;;4956074;29;20635;-69
2022/11/19 18:25:16;;;;;;;3.63;3.30;;;7.10;99.90;;;;;;4955930;29;20455;-68
2022/11/19 18:27:41;;;;;;;4.07;3.75;;;7.10;99.90;;;;;;4956449;29;20177;-67
2022/11/19 18:30:08;;;;;;;4.30;3.50;;;7.10;99.90;;;;;;4955932;29;20194;-67
2022/11/19 18:32:33;;;;;;;3.42;3.13;;;7.10;99.90;;;;;;4955869;29;20503;-67
2022/11/19 18:34:59;;;;;;;4.40;4.00;;;7.20;99.90;;;;;;4955690;29;20340;-67
2022/11/19 18:37:25;;;;;;;5.37;4.73;;;7.20;99.90;;;;;;4955689;29;20187;-66
2022/11/19 18:39:52;;;;;;;5.20;4.70;;;7.20;99.90;;;;;;4955518;29;20208;-67
2022/11/19 18:42:18;;;;;;;5.30;4.78;;;7.20;99.90;;;;;;4955874;29;20611;-66
2022/11/19 18:44:43;;;;;;;5.60;4.87;;;7.20;99.90;;;;;;4955451;29;20221;-67
2022/11/19 18:47:11;;;;;;;4.60;4.20;;;7.20;99.90;;;;;;4955569;29;20307;-67
2022/11/19 18:49:37;;;;;;;4.38;3.97;;;7.20;99.90;;;;;;4955632;29;20196;-67
2022/11/19 18:52:09;;;;;;;6.67;4.60;;;7.20;99.90;;;;;;4955370;29;20184;-66
2022/11/19 18:54:35;;;;;;;8.45;4.55;;;7.20;99.90;;;;;;4955265;29;20432;-67
2022/11/19 18:57:02;;;;;;;6.93;5.55;;;7.20;99.90;;;;;;4955381;29;20185;-67
2022/11/19 18:59:28;;;;;;;7.28;5.35;;;7.20;99.90;;;;;;4955274;29;20211;-66
2022/11/19 19:01:55;;;;;;;7.45;6.00;;;7.20;99.90;;;;;;4955300;29;20573;-68